Buzzards Bay, Massachusetts
Current Conditions -  °F | °C
As of 10:15 PM on Saturday 20 Dec 2014 (Local Time) from KFMH Reporting Station
Broken Clouds Broken Clouds  
Wind Chill: 31°   Ceiling: 1900
Heat Index: 37°   Visibility: 10mi
Dew Point: 36°   Wind: 8mph
Humidity: 93%   Direction: 50°NE
Pressure: 30.26"   Gusts: NA
Location:  41.75°N, 70.61°W
Report Text: KFMH 210315Z AUTO 05007KT 10SM FEW010 SCT014 BKN019 03/02 A3026 RMK AO2
Loading
Personal Weather Stations






























Interactive Weather Map New forecast layout! Learn more

10-Day Weather Forecast

Advertisements
Track Severe Weather on mobile